createdAt,value
2018-03-24T00:00:08.816Z,0.20
2018-03-24T00:02:36.364Z,0.10
2018-03-24T00:05:03.902Z,0.10
2018-03-24T00:07:31.457Z,0.00
2018-03-24T00:09:58.996Z,0.00
2018-03-24T00:12:27.316Z,0.00
2018-03-24T00:14:54.848Z,-0.10
2018-03-24T00:17:22.405Z,-0.10
2018-03-24T00:19:49.930Z,-0.10
2018-03-24T00:22:18.255Z,-0.30
2018-03-24T00:24:45.784Z,-0.30
2018-03-24T00:27:14.156Z,-0.40
2018-03-24T00:29:42.457Z,-0.50
2018-03-24T00:32:10.925Z,-0.50
2018-03-24T00:34:38.466Z,-0.50
2018-03-24T00:37:06.777Z,-0.60
2018-03-24T00:39:34.320Z,-0.60
2018-03-24T00:42:01.893Z,-0.60
2018-03-24T00:44:29.427Z,-0.60
2018-03-24T00:46:57.751Z,-0.70
2018-03-24T00:49:25.283Z,-0.70
2018-03-24T00:51:52.835Z,-0.60
2018-03-24T00:54:20.399Z,-0.70
2018-03-24T00:56:47.960Z,-0.70
2018-03-24T00:59:15.510Z,-0.70
2018-03-24T01:01:43.057Z,-0.70
2018-03-24T01:04:11.352Z,-0.60
2018-03-24T01:06:38.916Z,-0.70
2018-03-24T01:09:06.462Z,-0.60
2018-03-24T01:11:34.021Z,-0.60
2018-03-24T01:14:01.554Z,-0.60
2018-03-24T01:16:29.874Z,-0.50
2018-03-24T01:18:57.409Z,-0.50
2018-03-24T01:21:25.027Z,-0.50
2018-03-24T01:23:52.573Z,-0.50
2018-03-24T01:26:20.121Z,-0.50
2018-03-24T01:28:47.675Z,-0.50
2018-03-24T01:31:15.208Z,-0.40
2018-03-24T01:33:42.765Z,-0.40
2018-03-24T01:36:10.303Z,-0.40
2018-03-24T01:38:38.619Z,-0.40
2018-03-24T01:41:06.168Z,-0.40
2018-03-24T01:43:33.733Z,-0.40
2018-03-24T01:46:01.275Z,-0.40
2018-03-24T01:48:28.834Z,-0.30
2018-03-24T01:50:56.369Z,-0.30
2018-03-24T01:53:36.451Z,-0.30
2018-03-24T01:56:03.986Z,-0.40
2018-03-24T01:58:32.302Z,-0.30
2018-03-24T02:00:59.846Z,-0.30
2018-03-24T02:03:27.402Z,-0.30
2018-03-24T02:05:55.112Z,-0.30
2018-03-24T02:08:22.672Z,-0.20
2018-03-24T02:10:50.199Z,-0.20
2018-03-24T02:13:17.771Z,-0.20
2018-03-24T02:15:45.308Z,-0.20
2018-03-24T02:18:12.857Z,-0.10
2018-03-24T02:20:40.384Z,-0.10
2018-03-24T02:23:08.696Z,-0.10
2018-03-24T02:25:36.229Z,-0.10
2018-03-24T02:28:04.545Z,-0.10
2018-03-24T02:30:32.083Z,-0.10
2018-03-24T02:32:59.637Z,-0.10
2018-03-24T02:35:27.176Z,-0.10
2018-03-24T02:37:55.498Z,-0.10
2018-03-24T02:40:23.068Z,-0.10
2018-03-24T02:42:50.664Z,-0.10
2018-03-24T02:45:18.964Z,0.00
2018-03-24T02:47:46.501Z,-0.10
2018-03-24T02:50:14.809Z,0.00
2018-03-24T02:52:42.351Z,0.00
2018-03-24T02:55:09.918Z,0.00
2018-03-24T02:57:37.452Z,0.00
2018-03-24T03:00:05.797Z,0.00
2018-03-24T03:02:33.346Z,-0.10
2018-03-24T03:05:00.897Z,0.00
2018-03-24T03:07:28.427Z,-0.10
2018-03-24T03:09:55.981Z,-0.10
2018-03-24T03:12:23.509Z,-0.10
2018-03-24T03:14:51.057Z,-0.10
2018-03-24T03:17:18.605Z,-0.20
2018-03-24T03:19:46.169Z,-0.20
2018-03-24T03:22:13.713Z,-0.30
2018-03-24T03:24:41.272Z,-0.40
2018-03-24T03:27:08.843Z,-0.40
2018-03-24T03:29:36.375Z,-0.50
2018-03-24T03:32:04.756Z,-0.50
2018-03-24T03:34:32.297Z,-0.60
2018-03-24T03:36:59.833Z,-0.70
2018-03-24T03:39:28.137Z,-0.80
2018-03-24T03:41:55.693Z,-0.80
2018-03-24T03:44:23.226Z,-0.80
2018-03-24T03:46:51.546Z,-0.90
2018-03-24T03:49:19.077Z,-0.90
2018-03-24T03:51:46.632Z,-0.90
2018-03-24T03:54:14.161Z,-1.00
2018-03-24T03:56:41.717Z,-1.00
2018-03-24T03:59:09.254Z,-1.10
2018-03-24T04:01:36.818Z,-1.10
2018-03-24T04:04:04.377Z,-1.20
2018-03-24T04:06:31.929Z,-1.20
2018-03-24T04:08:59.466Z,-1.30
2018-03-24T04:11:27.030Z,-1.30
2018-03-24T04:13:54.574Z,-1.40
2018-03-24T04:16:22.125Z,-1.40
2018-03-24T04:18:49.679Z,-1.50
2018-03-24T04:21:17.224Z,-1.60
2018-03-24T04:23:45.516Z,-1.70
2018-03-24T04:26:13.048Z,-1.70
2018-03-24T04:28:40.597Z,-1.70
2018-03-24T04:31:08.143Z,-1.70
2018-03-24T04:33:35.694Z,-1.70
2018-03-24T04:36:03.237Z,-1.70
2018-03-24T04:38:30.801Z,-1.70
2018-03-24T04:40:58.338Z,-1.80
2018-03-24T04:43:25.906Z,-1.80
2018-03-24T04:45:53.445Z,-1.80
2018-03-24T04:48:21.003Z,-1.80
2018-03-24T04:50:48.546Z,-1.90
2018-03-24T04:53:16.861Z,-1.90
2018-03-24T04:55:44.409Z,-1.90
2018-03-24T04:58:11.958Z,-1.90
2018-03-24T05:00:39.504Z,-2.00
2018-03-24T05:03:07.063Z,-2.00
2018-03-24T05:05:34.604Z,-2.00
2018-03-24T05:08:02.934Z,-2.00
2018-03-24T05:10:30.473Z,-2.00
2018-03-24T05:12:58.023Z,-1.90
2018-03-24T05:15:25.556Z,-1.90
2018-03-24T05:17:53.874Z,-2.00
2018-03-24T05:20:21.417Z,-2.00
2018-03-24T05:22:48.977Z,-1.90
2018-03-24T05:25:16.515Z,-1.90
2018-03-24T05:27:44.841Z,-1.80
2018-03-24T05:30:12.377Z,-1.90
2018-03-24T05:32:39.909Z,-1.80
2018-03-24T05:35:08.234Z,-1.60
2018-03-24T05:37:35.795Z,-1.70
2018-03-24T05:40:03.353Z,-1.50
2018-03-24T05:42:30.897Z,-1.40
2018-03-24T05:44:58.465Z,-1.30
2018-03-24T05:47:26.004Z,-1.20
2018-03-24T05:49:53.571Z,-1.00
2018-03-24T05:52:21.946Z,-0.90
2018-03-24T05:54:49.501Z,-0.80
2018-03-24T05:57:17.051Z,-0.60
2018-03-24T05:59:44.614Z,-0.50
2018-03-24T06:02:12.183Z,-0.40
2018-03-24T06:04:40.546Z,-0.30
2018-03-24T06:07:08.102Z,-0.30
2018-03-24T06:09:35.666Z,-0.20
2018-03-24T06:12:03.206Z,-0.10
2018-03-24T06:14:31.526Z,0.00
2018-03-24T06:16:59.048Z,0.00
2018-03-24T06:19:26.596Z,0.10
2018-03-24T06:21:54.135Z,0.20
2018-03-24T06:24:22.452Z,0.30
2018-03-24T06:26:49.973Z,0.30
2018-03-24T06:29:17.530Z,0.30
2018-03-24T06:31:45.525Z,0.40
2018-03-24T06:34:13.072Z,0.40
2018-03-24T06:36:46.054Z,0.50
2018-03-24T06:39:14.358Z,0.60
2018-03-24T06:41:41.885Z,0.60
2018-03-24T06:44:10.201Z,0.80
2018-03-24T06:46:37.726Z,0.80
2018-03-24T06:49:06.037Z,0.90
2018-03-24T06:51:33.561Z,0.90
2018-03-24T06:54:01.869Z,1.00
2018-03-24T06:56:29.400Z,1.00
2018-03-24T06:58:57.718Z,1.10
2018-03-24T07:01:25.254Z,1.00
2018-03-24T07:03:52.822Z,1.10
2018-03-24T07:06:20.349Z,1.10
2018-03-24T07:08:47.933Z,1.20
2018-03-24T07:11:15.473Z,1.30
2018-03-24T07:13:43.027Z,1.40
2018-03-24T07:16:11.322Z,1.40
2018-03-24T07:18:38.869Z,1.40
2018-03-24T07:21:06.405Z,1.40
2018-03-24T07:23:34.702Z,1.70
2018-03-24T07:26:02.241Z,1.70
2018-03-24T07:28:30.542Z,1.90
2018-03-24T07:30:58.869Z,2.00
2018-03-24T07:33:26.406Z,1.90
2018-03-24T07:35:53.950Z,2.00
2018-03-24T07:38:21.485Z,2.00
2018-03-24T07:40:49.030Z,2.10
2018-03-24T07:43:17.329Z,2.30
2018-03-24T07:45:44.885Z,2.30
2018-03-24T07:48:12.420Z,2.30
2018-03-24T07:50:40.736Z,2.30
2018-03-24T07:53:08.260Z,2.30
2018-03-24T07:55:36.574Z,2.70
2018-03-24T07:58:04.104Z,2.60
2018-03-24T08:00:31.653Z,2.90
2018-03-24T08:02:59.949Z,3.70
2018-03-24T08:05:27.501Z,3.70
2018-03-24T08:07:55.029Z,4.00
2018-03-24T08:10:22.577Z,4.50
2018-03-24T08:12:50.106Z,5.00
2018-03-24T08:15:17.666Z,5.00
2018-03-24T08:17:45.189Z,5.30
2018-03-24T08:20:12.730Z,5.40
2018-03-24T08:22:41.029Z,5.60
2018-03-24T08:25:08.576Z,5.60
2018-03-24T08:27:36.880Z,5.80
2018-03-24T08:30:04.483Z,5.80
2018-03-24T08:32:32.039Z,6.00
2018-03-24T08:34:59.586Z,6.50
2018-03-24T08:37:27.115Z,7.40
2018-03-24T08:39:54.685Z,7.70
2018-03-24T08:42:22.216Z,8.50
2018-03-24T08:44:49.768Z,8.60
2018-03-24T08:47:17.306Z,8.80
2018-03-24T08:49:45.626Z,8.90
2018-03-24T08:52:28.655Z,9.70
2018-03-24T08:54:56.198Z,9.60
2018-03-24T08:57:23.728Z,10.00
2018-03-24T08:59:52.042Z,11.60
2018-03-24T09:02:40.013Z,11.60
2018-03-24T09:05:07.573Z,12.10
2018-03-24T09:07:35.101Z,12.00
2018-03-24T09:10:02.659Z,12.60
2018-03-24T09:12:30.199Z,13.40
2018-03-24T09:14:57.766Z,14.50
2018-03-24T09:17:25.300Z,13.40
2018-03-24T09:19:52.861Z,13.50
2018-03-24T09:22:20.419Z,12.70
2018-03-24T09:24:47.994Z,13.10
2018-03-24T09:27:15.646Z,13.90
2018-03-24T09:29:43.985Z,14.10
2018-03-24T09:32:11.527Z,13.60
2018-03-24T09:34:39.119Z,12.90
2018-03-24T09:37:07.418Z,14.40
2018-03-24T09:39:35.118Z,14.30
2018-03-24T09:42:02.654Z,14.50
2018-03-24T09:44:31.150Z,14.20
2018-03-24T09:46:58.686Z,14.10
2018-03-24T09:49:26.224Z,12.80
2018-03-24T09:51:54.548Z,10.10
2018-03-24T09:54:22.072Z,10.10
2018-03-24T09:56:49.630Z,10.50
2018-03-24T09:59:17.202Z,10.90
2018-03-24T10:01:45.501Z,11.40
2018-03-24T10:04:13.082Z,11.40
2018-03-24T10:06:40.629Z,11.60
2018-03-24T10:09:08.204Z,11.40
2018-03-24T10:11:35.801Z,11.30
2018-03-24T10:14:03.338Z,11.10
2018-03-24T10:16:31.676Z,10.30
2018-03-24T10:18:59.218Z,10.30
2018-03-24T10:24:49.511Z,9.80
2018-03-24T10:27:17.029Z,9.10
2018-03-24T10:29:44.561Z,9.30
2018-03-24T10:32:12.110Z,10.10
2018-03-24T10:34:39.641Z,11.10
2018-03-24T10:37:07.191Z,12.70
2018-03-24T10:39:34.727Z,13.60
2018-03-24T10:42:03.044Z,12.70
2018-03-24T10:44:30.581Z,12.70
2018-03-24T10:46:58.129Z,13.40
2018-03-24T10:49:26.422Z,12.80
2018-03-24T10:51:53.989Z,12.80
2018-03-24T10:54:21.525Z,14.20
2018-03-24T10:56:49.836Z,13.40
2018-03-24T10:59:17.369Z,13.30
2018-03-24T11:01:44.921Z,12.10
2018-03-24T11:04:13.257Z,14.50
2018-03-24T11:06:40.781Z,14.50
2018-03-24T11:09:08.318Z,13.30
2018-03-24T11:11:35.866Z,14.10
2018-03-24T11:14:04.166Z,15.60
2018-03-24T11:16:31.737Z,15.50
2018-03-24T11:18:59.262Z,15.30
2018-03-24T11:21:27.826Z,11.30
2018-03-24T11:23:55.361Z,11.20
2018-03-24T11:26:23.655Z,10.90
2018-03-24T11:28:51.300Z,10.80
2018-03-24T11:31:19.675Z,11.20
2018-03-24T11:33:47.216Z,11.10
2018-03-24T11:36:14.802Z,11.20
2018-03-24T11:38:42.358Z,12.00
2018-03-24T11:41:09.949Z,12.20
2018-03-24T11:43:38.277Z,11.80
2018-03-24T11:46:05.851Z,11.80
2018-03-24T11:48:33.430Z,11.00
2018-03-24T11:51:01.783Z,11.80
2018-03-24T11:53:41.154Z,11.80
2018-03-24T11:56:09.523Z,11.80
2018-03-24T11:58:37.076Z,11.80
2018-03-24T12:01:04.629Z,11.80
2018-03-24T12:03:32.214Z,11.30
2018-03-24T12:05:59.776Z,11.00
2018-03-24T12:08:28.130Z,10.80
2018-03-24T12:10:56.452Z,10.60
2018-03-24T12:13:24.027Z,10.60
2018-03-24T12:15:51.585Z,10.40
2018-03-24T12:18:19.187Z,10.10
2018-03-24T12:20:46.734Z,9.90
2018-03-24T12:23:14.364Z,9.70
2018-03-24T12:25:41.931Z,9.50
2018-03-24T12:28:09.518Z,9.50
2018-03-24T12:30:37.053Z,9.40
2018-03-24T12:33:04.618Z,9.30
2018-03-24T12:35:32.153Z,9.20
2018-03-24T12:37:59.715Z,8.90
2018-03-24T12:40:27.239Z,8.60
2018-03-24T12:42:54.812Z,8.30
2018-03-24T12:45:22.373Z,8.10
2018-03-24T12:47:50.145Z,8.10
2018-03-24T12:50:17.673Z,9.60
2018-03-24T12:52:45.274Z,11.40
2018-03-24T12:55:12.822Z,13.50
2018-03-24T12:57:40.387Z,14.20
2018-03-24T13:00:07.912Z,15.70
2018-03-24T13:02:35.464Z,16.00
2018-03-24T13:05:03.774Z,15.10
2018-03-24T13:07:31.331Z,15.00
2018-03-24T13:09:58.874Z,14.80
2018-03-24T13:12:26.430Z,13.50
2018-03-24T13:14:53.977Z,13.60
2018-03-24T13:17:22.300Z,15.10
2018-03-24T13:19:49.843Z,15.10
2018-03-24T13:22:17.416Z,14.60
2018-03-24T13:24:44.950Z,15.40
2018-03-24T13:27:12.501Z,14.60
2018-03-24T13:29:40.046Z,14.60
2018-03-24T13:32:08.365Z,16.30
2018-03-24T13:34:35.902Z,16.30
2018-03-24T13:37:03.457Z,15.50
2018-03-24T13:39:31.047Z,15.50
2018-03-24T13:41:58.617Z,15.90
2018-03-24T13:44:26.190Z,16.80
2018-03-24T13:46:53.790Z,18.30
2018-03-24T13:49:21.336Z,18.20
2018-03-24T13:51:48.903Z,18.40
2018-03-24T13:54:16.488Z,16.40
2018-03-24T13:56:44.818Z,15.30
2018-03-24T13:59:13.190Z,14.70
2018-03-24T14:01:41.502Z,15.90
2018-03-24T14:04:09.071Z,15.90
2018-03-24T14:06:36.639Z,15.70
2018-03-24T14:09:04.218Z,15.80
2018-03-24T14:11:31.775Z,16.90
2018-03-24T14:13:59.335Z,16.50
2018-03-24T14:16:26.893Z,15.90
2018-03-24T14:18:54.473Z,14.80
2018-03-24T14:21:22.013Z,14.00
2018-03-24T14:23:49.635Z,14.10
2018-03-24T14:26:17.149Z,14.80
2018-03-24T14:28:45.485Z,14.20
2018-03-24T14:31:13.037Z,14.20
2018-03-24T14:33:40.601Z,13.50
2018-03-24T14:36:08.149Z,13.50
2018-03-24T14:38:35.765Z,12.60
2018-03-24T14:41:03.301Z,12.50
2018-03-24T14:43:30.867Z,12.10
2018-03-24T14:45:58.431Z,10.90
2018-03-24T14:48:26.236Z,10.60
2018-03-24T14:50:53.802Z,10.20
2018-03-24T14:53:21.394Z,10.00
2018-03-24T14:55:49.016Z,9.90
2018-03-24T14:58:16.586Z,9.80
2018-03-24T15:00:44.168Z,10.20
2018-03-24T15:03:11.807Z,9.90
2018-03-24T15:05:39.358Z,10.00
2018-03-24T15:08:06.959Z,10.20
2018-03-24T15:10:34.517Z,10.30
2018-03-24T15:13:02.125Z,10.30
2018-03-24T15:15:29.758Z,9.90
2018-03-24T15:17:58.147Z,9.00
2018-03-24T15:20:25.814Z,9.00
2018-03-24T15:22:53.413Z,9.00
2018-03-24T15:25:21.516Z,9.10
2018-03-24T15:27:49.263Z,8.60
2018-03-24T15:30:28.630Z,8.40
2018-03-24T15:33:08.750Z,8.50
2018-03-24T15:35:37.370Z,8.40
2018-03-24T15:38:05.803Z,8.90
2018-03-24T15:40:33.386Z,8.90
2018-03-24T15:43:01.198Z,8.90
2018-03-24T15:45:28.947Z,9.00
2018-03-24T15:47:56.526Z,9.00
2018-03-24T15:50:24.181Z,9.10
2018-03-24T15:52:51.838Z,8.90
2018-03-24T15:55:19.432Z,8.70
2018-03-24T15:57:47.021Z,8.80
2018-03-24T16:00:14.600Z,8.70
2018-03-24T16:02:42.962Z,8.50
2018-03-24T16:05:10.542Z,8.50
2018-03-24T16:07:39.001Z,8.50
2018-03-24T16:10:06.622Z,8.50
2018-03-24T16:12:34.247Z,8.40
2018-03-24T16:15:01.845Z,8.30
2018-03-24T16:17:29.537Z,8.40
2018-03-24T16:19:57.171Z,8.30
2018-03-24T16:22:24.782Z,8.30
2018-03-24T16:24:52.426Z,8.20
2018-03-24T16:27:19.959Z,8.10
2018-03-24T16:29:47.527Z,8.00
2018-03-24T16:32:15.074Z,8.00
2018-03-24T16:34:42.622Z,8.00
2018-03-24T16:37:10.150Z,7.80
2018-03-24T16:39:37.758Z,7.80
2018-03-24T16:42:05.321Z,7.70
2018-03-24T16:44:32.885Z,7.70
2018-03-24T16:47:00.425Z,7.60
2018-03-24T16:49:27.978Z,7.50
2018-03-24T16:51:55.509Z,7.40
2018-03-24T16:54:23.053Z,7.30
2018-03-24T16:56:51.341Z,7.10
2018-03-24T16:59:18.898Z,7.10
2018-03-24T17:01:46.430Z,7.00
2018-03-24T17:04:14.757Z,6.60
2018-03-24T17:06:42.289Z,6.60
2018-03-24T17:09:09.841Z,6.40
2018-03-24T17:11:37.432Z,6.30
2018-03-24T17:14:04.953Z,6.10
2018-03-24T17:16:33.270Z,5.80
2018-03-24T17:19:00.831Z,5.80
2018-03-24T17:21:28.356Z,5.70
2018-03-24T17:23:55.922Z,5.50
2018-03-24T17:26:23.479Z,5.30
2018-03-24T17:28:51.847Z,5.20
2018-03-24T17:31:19.382Z,5.00
2018-03-24T17:33:46.980Z,4.90
2018-03-24T17:36:14.573Z,4.70
2018-03-24T17:38:42.158Z,4.60
2018-03-24T17:41:10.503Z,4.30
2018-03-24T17:43:38.050Z,4.30
2018-03-24T17:46:05.640Z,4.20
2018-03-24T17:48:33.208Z,4.00
2018-03-24T17:51:01.562Z,3.80
2018-03-24T17:53:29.131Z,3.80
2018-03-24T17:55:56.690Z,3.70
2018-03-24T17:58:24.238Z,3.60
2018-03-24T18:00:51.828Z,3.60
2018-03-24T18:03:20.143Z,3.40
2018-03-24T18:05:47.709Z,3.30
2018-03-24T18:08:15.268Z,3.30
2018-03-24T18:10:42.855Z,3.20
2018-03-24T18:13:10.413Z,3.10
2018-03-24T18:15:38.015Z,2.90
2018-03-24T18:18:05.804Z,2.90
2018-03-24T18:20:33.498Z,2.80
2018-03-24T18:23:01.001Z,2.70
2018-03-24T18:25:29.337Z,2.50
2018-03-24T18:27:56.862Z,2.50
2018-03-24T18:30:24.440Z,2.40
2018-03-24T18:32:51.969Z,2.30
2018-03-24T18:35:19.522Z,2.30
2018-03-24T18:37:47.050Z,2.20
2018-03-24T18:40:14.596Z,2.10
2018-03-24T18:42:42.125Z,2.00
2018-03-24T18:45:09.673Z,1.90
2018-03-24T18:47:37.221Z,1.80
2018-03-24T18:50:04.792Z,1.70
2018-03-24T18:52:32.340Z,1.60
2018-03-24T18:54:59.919Z,1.60
2018-03-24T18:57:27.487Z,1.50
2018-03-24T18:59:55.069Z,1.40
2018-03-24T19:02:22.617Z,1.30
2018-03-24T19:04:50.202Z,1.20
2018-03-24T19:07:18.506Z,1.00
2018-03-24T19:09:46.053Z,1.00
2018-03-24T19:12:14.357Z,0.80
2018-03-24T19:14:41.930Z,0.80
2018-03-24T19:17:09.478Z,0.70
2018-03-24T19:19:37.085Z,0.70
2018-03-24T19:22:05.394Z,0.60
2018-03-24T19:24:32.971Z,0.50
2018-03-24T19:27:01.280Z,0.40
2018-03-24T19:29:28.876Z,0.40
2018-03-24T19:31:57.212Z,0.30
2018-03-24T19:34:24.757Z,0.30
2018-03-24T19:36:52.325Z,0.30
2018-03-24T19:39:19.863Z,0.30
2018-03-24T19:41:47.415Z,0.30
2018-03-24T19:44:14.965Z,0.30
2018-03-24T19:46:42.547Z,0.20
2018-03-24T19:49:10.100Z,0.20
2018-03-24T19:51:37.686Z,0.10
2018-03-24T19:54:05.219Z,0.00
2018-03-24T19:56:32.781Z,0.00
2018-03-24T19:59:00.341Z,-0.10
2018-03-24T20:01:27.951Z,-0.20
2018-03-24T20:03:55.524Z,-0.30
2018-03-24T20:06:23.116Z,-0.40
2018-03-24T20:08:50.696Z,-0.40
2018-03-24T20:11:18.321Z,-0.50
2018-03-24T20:13:45.903Z,-0.50
2018-03-24T20:16:13.487Z,-0.60
2018-03-24T20:18:41.813Z,-0.70
2018-03-24T20:21:09.403Z,-0.80
2018-03-24T20:23:36.933Z,-0.80
2018-03-24T20:26:04.510Z,-0.80
2018-03-24T20:28:32.083Z,-0.80
2018-03-24T20:30:59.672Z,-0.90
2018-03-24T20:33:27.988Z,-0.80
2018-03-24T20:35:55.583Z,-0.80
2018-03-24T20:38:23.202Z,-0.90
2018-03-24T20:40:50.774Z,-0.90
2018-03-24T20:43:18.349Z,-0.90
2018-03-24T20:45:45.909Z,-0.90
2018-03-24T20:48:13.489Z,-1.00
2018-03-24T20:50:41.042Z,-1.00
2018-03-24T20:53:08.589Z,-1.00
2018-03-24T20:55:36.136Z,-1.10
2018-03-24T20:58:03.718Z,-1.10
2018-03-24T21:00:31.274Z,-1.20
2018-03-24T21:02:58.813Z,-1.20
2018-03-24T21:05:26.361Z,-1.20
2018-03-24T21:07:53.932Z,-1.30
2018-03-24T21:10:21.485Z,-1.30
2018-03-24T21:12:49.027Z,-1.30
2018-03-24T21:15:16.594Z,-1.40
2018-03-24T21:17:44.147Z,-1.50
2018-03-24T21:20:11.694Z,-1.50
2018-03-24T21:22:39.243Z,-1.50
2018-03-24T21:25:06.794Z,-1.50
2018-03-24T21:27:35.112Z,-1.60
2018-03-24T21:30:02.665Z,-1.60
2018-03-24T21:32:30.233Z,-1.60
2018-03-24T21:34:57.779Z,-1.60
2018-03-24T21:37:25.334Z,-1.70
2018-03-24T21:39:52.874Z,-1.70
2018-03-24T21:42:20.451Z,-1.80
2018-03-24T21:44:48.002Z,-1.80
2018-03-24T21:47:15.627Z,-1.80
2018-03-24T21:49:43.956Z,-1.90
2018-03-24T21:52:11.540Z,-2.00
2018-03-24T21:54:39.094Z,-2.00
2018-03-24T21:57:06.649Z,-2.00
2018-03-24T21:59:34.183Z,-2.00
2018-03-24T22:02:01.737Z,-2.00
2018-03-24T22:04:29.278Z,-2.00
2018-03-24T22:06:56.843Z,-2.00
2018-03-24T22:09:24.380Z,-2.10
2018-03-24T22:11:52.698Z,-2.10
2018-03-24T22:14:20.229Z,-2.10
2018-03-24T22:16:48.546Z,-2.20
2018-03-24T22:19:16.093Z,-2.20
2018-03-24T22:21:43.658Z,-2.20
2018-03-24T22:24:11.196Z,-2.20
2018-03-24T22:26:38.749Z,-2.20
2018-03-24T22:29:06.302Z,-2.20
2018-03-24T22:31:33.861Z,-2.20
2018-03-24T22:34:01.398Z,-2.20
2018-03-24T22:36:29.718Z,-2.30
2018-03-24T22:38:58.022Z,-2.30
2018-03-24T22:41:25.577Z,-2.30
2018-03-24T22:43:53.113Z,-2.30
2018-03-24T22:46:20.675Z,-2.30
2018-03-24T22:48:48.209Z,-2.30
2018-03-24T22:51:15.768Z,-2.30
2018-03-24T22:53:43.309Z,-2.30
2018-03-24T22:56:11.604Z,-2.30
2018-03-24T22:58:39.185Z,-2.30
2018-03-24T23:01:06.721Z,-2.40
2018-03-24T23:03:34.268Z,-2.40
2018-03-24T23:06:02.571Z,-2.40
2018-03-24T23:08:30.133Z,-2.40
2018-03-24T23:10:57.678Z,-2.40
2018-03-24T23:13:25.233Z,-2.40
2018-03-24T23:15:52.778Z,-2.40
2018-03-24T23:18:20.380Z,-2.40
2018-03-24T23:20:47.922Z,-2.40
2018-03-24T23:23:26.804Z,-2.50
2018-03-24T23:25:55.100Z,-2.50
2018-03-24T23:28:22.721Z,-2.50
2018-03-24T23:30:50.210Z,-2.50
2018-03-24T23:33:17.763Z,-2.50
2018-03-24T23:35:46.055Z,-2.60
2018-03-24T23:38:13.625Z,-2.60
2018-03-24T23:40:41.161Z,-2.60
2018-03-24T23:43:09.477Z,-2.60
2018-03-24T23:45:37.046Z,-2.70
2018-03-24T23:48:04.635Z,-2.60
2018-03-24T23:50:32.209Z,-2.70
2018-03-24T23:53:00.526Z,-2.70
2018-03-24T23:55:28.057Z,-2.70
2018-03-24T23:57:56.383Z,-2.70
